sensor_id;sensor_type;location;lat;lon;timestamp;pressure;altitude;pressure_sealevel;temperature;humidity
46836;BME280;32573;51.290;6.926;2023-03-03T00:00:31;100806.22;;;2.13;100.00
46836;BME280;32573;51.290;6.926;2023-03-03T00:03:01;100810.50;;;2.12;100.00
46836;BME280;32573;51.290;6.926;2023-03-03T00:05:33;100814.75;;;2.12;100.00
46836;BME280;32573;51.290;6.926;2023-03-03T00:08:03;100818.13;;;2.11;100.00
46836;BME280;32573;51.290;6.926;2023-03-03T00:10:32;100816.34;;;2.10;100.00
46836;BME280;32573;51.290;6.926;2023-03-03T00:13:00;100818.94;;;2.10;100.00
46836;BME280;32573;51.290;6.926;2023-03-03T00:15:30;100827.56;;;2.10;100.00
46836;BME280;32573;51.290;6.926;2023-03-03T00:17:58;100828.31;;;2.09;100.00
46836;BME280;32573;51.290;6.926;2023-03-03T00:20:34;100825.66;;;2.08;100.00
46836;BME280;32573;51.290;6.926;2023-03-03T00:23:18;100824.75;;;2.07;100.00
46836;BME280;32573;51.290;6.926;2023-03-03T00:25:50;100824.84;;;2.09;100.00
46836;BME280;32573;51.290;6.926;2023-03-03T00:28:23;100830.00;;;2.09;100.00
46836;BME280;32573;51.290;6.926;2023-03-03T00:30:53;100826.66;;;2.10;100.00
46836;BME280;32573;51.290;6.926;2023-03-03T00:33:26;100830.13;;;2.10;100.00
46836;BME280;32573;51.290;6.926;2023-03-03T00:35:59;100838.78;;;2.11;100.00
46836;BME280;32573;51.290;6.926;2023-03-03T00:38:34;100843.13;;;2.12;100.00
46836;BME280;32573;51.290;6.926;2023-03-03T00:41:13;100845.72;;;2.12;100.00
46836;BME280;32573;51.290;6.926;2023-03-03T00:43:43;100832.81;;;2.12;100.00
46836;BME280;32573;51.290;6.926;2023-03-03T00:46:14;100837.22;;;2.13;100.00
46836;BME280;32573;51.290;6.926;2023-03-03T00:48:45;100841.78;;;2.17;100.00
46836;BME280;32573;51.290;6.926;2023-03-03T00:51:26;100838.31;;;2.16;100.00
46836;BME280;32573;51.290;6.926;2023-03-03T00:53:57;100849.53;;;2.17;100.00
46836;BME280;32573;51.290;6.926;2023-03-03T00:56:26;100847.75;;;2.16;100.00
46836;BME280;32573;51.290;6.926;2023-03-03T00:58:58;100851.13;;;2.15;100.00
46836;BME280;32573;51.290;6.926;2023-03-03T01:01:28;100849.31;;;2.14;100.00
46836;BME280;32573;51.290;6.926;2023-03-03T01:03:56;100850.88;;;2.12;100.00
46836;BME280;32573;51.290;6.926;2023-03-03T01:06:26;100849.09;;;2.11;100.00
46836;BME280;32573;51.290;6.926;2023-03-03T01:08:55;100851.56;;;2.09;100.00
46836;BME280;32573;51.290;6.926;2023-03-03T01:11:25;100862.69;;;2.08;100.00
46836;BME280;32573;51.290;6.926;2023-03-03T01:13:55;100855.63;;;2.06;100.00
46836;BME280;32573;51.290;6.926;2023-03-03T01:16:26;100852.91;;;2.04;100.00
46836;BME280;32573;51.290;6.926;2023-03-03T01:18:54;100856.28;;;2.03;100.00
46836;BME280;32573;51.290;6.926;2023-03-03T01:21:23;100863.16;;;2.03;100.00
46836;BME280;32573;51.290;6.926;2023-03-03T01:23:53;100860.56;;;2.03;100.00
46836;BME280;32573;51.290;6.926;2023-03-03T01:26:21;100856.97;;;2.01;100.00
46836;BME280;32573;51.290;6.926;2023-03-03T01:28:50;100850.00;;;2.00;100.00
46836;BME280;32573;51.290;6.926;2023-03-03T01:31:19;100854.25;;;1.99;100.00
46836;BME280;32573;51.290;6.926;2023-03-03T01:33:48;100850.91;;;2.00;100.00
46836;BME280;32573;51.290;6.926;2023-03-03T01:36:22;100851.81;;;2.01;100.00
46836;BME280;32573;51.290;6.926;2023-03-03T01:38:52;100851.81;;;2.01;100.00
46836;BME280;32573;51.290;6.926;2023-03-03T01:41:21;100861.34;;;2.02;100.00
46836;BME280;32573;51.290;6.926;2023-03-03T01:43:49;100864.72;;;2.01;100.00
46836;BME280;32573;51.290;6.926;2023-03-03T01:46:45;100863.91;;;2.02;100.00
46836;BME280;32573;51.290;6.926;2023-03-03T01:49:17;100865.72;;;2.03;100.00
46836;BME280;32573;51.290;6.926;2023-03-03T01:51:50;100861.34;;;2.02;100.00
46836;BME280;32573;51.290;6.926;2023-03-03T01:54:25;100864.84;;;2.02;100.00
46836;BME280;32573;51.290;6.926;2023-03-03T01:56:58;100860.56;;;2.03;100.00
46836;BME280;32573;51.290;6.926;2023-03-03T01:59:31;100854.50;;;2.02;100.00
46836;BME280;32573;51.290;6.926;2023-03-03T02:02:04;100867.50;;;2.04;100.00
46836;BME280;32573;51.290;6.926;2023-03-03T02:04:33;100858.06;;;2.04;100.00
46836;BME280;32573;51.290;6.926;2023-03-03T02:07:06;100859.00;;;2.05;100.00
46836;BME280;32573;51.290;6.926;2023-03-03T02:09:45;100862.56;;;2.07;100.00
46836;BME280;32573;51.290;6.926;2023-03-03T02:12:19;100856.72;;;2.09;100.00
46836;BME280;32573;51.290;6.926;2023-03-03T02:14:48;100857.75;;;2.11;100.00
46836;BME280;32573;51.290;6.926;2023-03-03T02:17:17;100862.13;;;2.12;100.00
46836;BME280;32573;51.290;6.926;2023-03-03T02:19:50;100857.88;;;2.13;100.00
46836;BME280;32573;51.290;6.926;2023-03-03T02:22:28;100859.66;;;2.14;100.00
46836;BME280;32573;51.290;6.926;2023-03-03T02:25:02;100859.66;;;2.14;100.00
46836;BME280;32573;51.290;6.926;2023-03-03T02:27:35;100861.47;;;2.15;100.00
46836;BME280;32573;51.290;6.926;2023-03-03T02:30:10;100865.69;;;2.14;100.00
46836;BME280;32573;51.290;6.926;2023-03-03T02:32:39;100867.41;;;2.14;100.00
46836;BME280;32573;51.290;6.926;2023-03-03T02:35:30;100858.75;;;2.13;100.00
46836;BME280;32573;51.290;6.926;2023-03-03T02:38:06;100852.69;;;2.13;100.00
46836;BME280;32573;51.290;6.926;2023-03-03T02:40:39;100857.88;;;2.13;100.00
46836;BME280;32573;51.290;6.926;2023-03-03T02:43:11;100856.28;;;2.15;100.00
46836;BME280;32573;51.290;6.926;2023-03-03T02:45:42;100850.34;;;2.16;100.00
46836;BME280;32573;51.290;6.926;2023-03-03T02:48:11;100847.75;;;2.16;100.00
46836;BME280;32573;51.290;6.926;2023-03-03T02:50:40;100859.88;;;2.17;100.00
46836;BME280;32573;51.290;6.926;2023-03-03T02:53:08;100862.56;;;2.19;100.00
46836;BME280;32573;51.290;6.926;2023-03-03T02:55:38;100866.84;;;2.18;100.00
46836;BME280;32573;51.290;6.926;2023-03-03T02:58:06;100873.78;;;2.19;100.00
46836;BME280;32573;51.290;6.926;2023-03-03T03:00:36;100878.94;;;2.19;100.00
46836;BME280;32573;51.290;6.926;2023-03-03T03:03:05;100876.28;;;2.18;100.00
46836;BME280;32573;51.290;6.926;2023-03-03T03:05:37;100883.09;;;2.17;100.00
46836;BME280;32573;51.290;6.926;2023-03-03T03:08:06;100881.19;;;2.14;100.00
46836;BME280;32573;51.290;6.926;2023-03-03T03:10:35;100885.47;;;2.14;100.00
46836;BME280;32573;51.290;6.926;2023-03-03T03:13:05;100890.63;;;2.14;100.00
46836;BME280;32573;51.290;6.926;2023-03-03T03:15:34;100897.47;;;2.13;100.00
46836;BME280;32573;51.290;6.926;2023-03-03T03:18:04;100881.19;;;2.14;100.00
46836;BME280;32573;51.290;6.926;2023-03-03T03:20:35;100886.47;;;2.16;100.00
46836;BME280;32573;51.290;6.926;2023-03-03T03:23:06;100885.47;;;2.14;100.00
46836;BME280;32573;51.290;6.926;2023-03-03T03:25:35;100878.53;;;2.13;100.00
46836;BME280;32573;51.290;6.926;2023-03-03T03:28:08;100881.88;;;2.12;100.00
46836;BME280;32573;51.290;6.926;2023-03-03T03:30:38;100894.78;;;2.12;100.00
46836;BME280;32573;51.290;6.926;2023-03-03T03:33:09;100890.53;;;2.12;100.00
46836;BME280;32573;51.290;6.926;2023-03-03T03:35:38;100901.63;;;2.11;100.00
46836;BME280;32573;51.290;6.926;2023-03-03T03:38:13;100891.31;;;2.11;100.00
46836;BME280;32573;51.290;6.926;2023-03-03T03:40:42;100889.53;;;2.10;100.00
46836;BME280;32573;51.290;6.926;2023-03-03T03:43:11;100886.94;;;2.10;100.00
46836;BME280;32573;51.290;6.926;2023-03-03T03:45:41;100894.56;;;2.09;100.00
46836;BME280;32573;51.290;6.926;2023-03-03T03:48:12;100902.31;;;2.09;100.00
46836;BME280;32573;51.290;6.926;2023-03-03T03:50:44;100903.19;;;2.09;100.00
46836;BME280;32573;51.290;6.926;2023-03-03T03:53:12;100904.00;;;2.08;100.00
46836;BME280;32573;51.290;6.926;2023-03-03T03:55:41;100893.53;;;2.07;100.00
46836;BME280;32573;51.290;6.926;2023-03-03T03:58:11;100890.88;;;2.05;100.00
46836;BME280;32573;51.290;6.926;2023-03-03T04:00:41;100892.44;;;2.03;100.00
46836;BME280;32573;51.290;6.926;2023-03-03T04:03:11;100893.22;;;2.02;100.00
46836;BME280;32573;51.290;6.926;2023-03-03T04:05:43;100893.09;;;2.01;100.00
46836;BME280;32573;51.290;6.926;2023-03-03T04:08:12;100891.19;;;1.98;100.00
46836;BME280;32573;51.290;6.926;2023-03-03T04:10:42;100890.31;;;1.98;100.00
46836;BME280;32573;51.290;6.926;2023-03-03T04:13:11;100891.97;;;1.97;100.00
46836;BME280;32573;51.290;6.926;2023-03-03T04:15:40;100903.88;;;1.95;100.00
46836;BME280;32573;51.290;6.926;2023-03-03T04:18:10;100909.94;;;1.96;100.00
46836;BME280;32573;51.290;6.926;2023-03-03T04:20:40;100909.94;;;1.96;100.00
46836;BME280;32573;51.290;6.926;2023-03-03T04:23:10;100912.53;;;1.96;100.00
46836;BME280;32573;51.290;6.926;2023-03-03T04:25:39;100921.03;;;1.94;100.00
46836;BME280;32573;51.290;6.926;2023-03-03T04:28:13;100915.66;;;1.91;100.00
46836;BME280;32573;51.290;6.926;2023-03-03T04:30:42;100907.91;;;1.91;100.00
46836;BME280;32573;51.290;6.926;2023-03-03T04:33:15;100902.66;;;1.90;100.00
46836;BME280;32573;51.290;6.926;2023-03-03T04:35:44;100900.84;;;1.89;100.00
46836;BME280;32573;51.290;6.926;2023-03-03T04:38:12;100901.63;;;1.88;100.00
46836;BME280;32573;51.290;6.926;2023-03-03T04:40:42;100898.91;;;1.86;100.00
46836;BME280;32573;51.290;6.926;2023-03-03T04:43:13;100899.81;;;1.87;100.00
46836;BME280;32573;51.290;6.926;2023-03-03T04:45:42;100906.66;;;1.86;100.00
46836;BME280;32573;51.290;6.926;2023-03-03T04:48:11;100906.66;;;1.86;100.00
46836;BME280;32573;51.290;6.926;2023-03-03T04:50:42;100908.47;;;1.87;100.00
46836;BME280;32573;51.290;6.926;2023-03-03T04:53:10;100902.31;;;1.85;100.00
46836;BME280;32573;51.290;6.926;2023-03-03T04:55:40;100905.66;;;1.84;100.00
46836;BME280;32573;51.290;6.926;2023-03-03T04:58:09;100908.13;;;1.83;100.00
46836;BME280;32573;51.290;6.926;2023-03-03T05:00:38;100920.91;;;1.81;100.00
46836;BME280;32573;51.290;6.926;2023-03-03T05:03:11;100910.38;;;1.78;100.00
46836;BME280;32573;51.290;6.926;2023-03-03T05:05:43;100907.56;;;1.75;100.00
46836;BME280;32573;51.290;6.926;2023-03-03T05:08:11;100913.50;;;1.74;100.00
46836;BME280;32573;51.290;6.926;2023-03-03T05:10:40;100922.03;;;1.73;100.00
46836;BME280;32573;51.290;6.926;2023-03-03T05:13:08;100921.22;;;1.74;100.00
46836;BME280;32573;51.290;6.926;2023-03-03T05:15:37;100918.56;;;1.72;100.00
46836;BME280;32573;51.290;6.926;2023-03-03T05:18:09;100910.16;;;1.75;100.00
46836;BME280;32573;51.290;6.926;2023-03-03T05:20:38;100916.19;;;1.76;100.00
46836;BME280;32573;51.290;6.926;2023-03-03T05:23:09;100912.81;;;1.77;100.00
46836;BME280;32573;51.290;6.926;2023-03-03T05:25:39;100908.53;;;1.77;100.00
46836;BME280;32573;51.290;6.926;2023-03-03T05:28:07;100904.97;;;1.75;100.00
46836;BME280;32573;51.290;6.926;2023-03-03T05:30:36;100908.31;;;1.74;100.00
46836;BME280;32573;51.290;6.926;2023-03-03T05:33:11;100915.03;;;1.72;100.00
46836;BME280;32573;51.290;6.926;2023-03-03T05:35:40;100914.16;;;1.71;100.00
46836;BME280;32573;51.290;6.926;2023-03-03T05:38:11;100917.41;;;1.69;100.00
46836;BME280;32573;51.290;6.926;2023-03-03T05:40:39;100918.19;;;1.68;100.00
46836;BME280;32573;51.290;6.926;2023-03-03T05:43:08;100918.19;;;1.68;100.00
46836;BME280;32573;51.290;6.926;2023-03-03T05:45:36;100920.66;;;1.66;100.00
46836;BME280;32573;51.290;6.926;2023-03-03T05:48:05;100931.63;;;1.64;100.00
46836;BME280;32573;51.290;6.926;2023-03-03T05:50:33;100921.31;;;1.64;100.00
46836;BME280;32573;51.290;6.926;2023-03-03T05:53:02;100925.47;;;1.62;100.00
46836;BME280;32573;51.290;6.926;2023-03-03T05:55:32;100919.28;;;1.60;100.00
46836;BME280;32573;51.290;6.926;2023-03-03T05:58:00;100917.50;;;1.59;100.00
46836;BME280;32573;51.290;6.926;2023-03-03T06:00:29;100924.22;;;1.57;100.00
46836;BME280;32573;51.290;6.926;2023-03-03T06:02:57;100920.63;;;1.55;100.00
46836;BME280;32573;51.290;6.926;2023-03-03T06:05:26;100931.84;;;1.55;100.00
46836;BME280;32573;51.290;6.926;2023-03-03T06:07:54;100940.34;;;1.54;100.00
46836;BME280;32573;51.290;6.926;2023-03-03T06:10:23;100948.00;;;1.53;100.00
46836;BME280;32573;51.290;6.926;2023-03-03T06:12:56;100947.75;;;1.49;100.00
46836;BME280;32573;51.290;6.926;2023-03-03T06:15:25;100956.28;;;1.48;100.00
46836;BME280;32573;51.290;6.926;2023-03-03T06:17:53;100960.53;;;1.48;100.00
46836;BME280;32573;51.290;6.926;2023-03-03T06:20:22;100959.66;;;1.47;100.00
46836;BME280;32573;51.290;6.926;2023-03-03T06:22:50;100959.66;;;1.47;100.00
46836;BME280;32573;51.290;6.926;2023-03-03T06:25:19;100960.41;;;1.46;100.00
46836;BME280;32573;51.290;6.926;2023-03-03T06:27:47;100963.88;;;1.47;100.00
46836;BME280;32573;51.290;6.926;2023-03-03T06:30:17;100973.31;;;1.46;100.00
46836;BME280;32573;51.290;6.926;2023-03-03T06:32:46;100969.97;;;1.47;100.00
46836;BME280;32573;51.290;6.926;2023-03-03T06:35:14;100976.91;;;1.48;100.00
46836;BME280;32573;51.290;6.926;2023-03-03T06:37:44;100979.47;;;1.48;100.00
46836;BME280;32573;51.290;6.926;2023-03-03T06:40:13;100991.59;;;1.49;100.00
46836;BME280;32573;51.290;6.926;2023-03-03T06:42:41;100991.59;;;1.49;100.00
46836;BME280;32573;51.290;6.926;2023-03-03T06:45:10;100989.00;;;1.49;100.00
46836;BME280;32573;51.290;6.926;2023-03-03T06:47:40;100995.97;;;1.50;100.00
46836;BME280;32573;51.290;6.926;2023-03-03T06:50:10;101001.16;;;1.50;100.00
46836;BME280;32573;51.290;6.926;2023-03-03T06:52:39;100994.28;;;1.51;100.00
46836;BME280;32573;51.290;6.926;2023-03-03T06:55:12;100995.97;;;1.50;100.00
46836;BME280;32573;51.290;6.926;2023-03-03T06:57:43;100990.81;;;1.50;100.00
46836;BME280;32573;51.290;6.926;2023-03-03T07:00:15;100995.19;;;1.51;100.00
46836;BME280;32573;51.290;6.926;2023-03-03T07:02:52;100999.44;;;1.51;100.00
46836;BME280;32573;51.290;6.926;2023-03-03T07:05:26;100992.59;;;1.51;100.00
46836;BME280;32573;51.290;6.926;2023-03-03T07:07:56;101004.75;;;1.53;100.00
46836;BME280;32573;51.290;6.926;2023-03-03T07:10:26;101009.09;;;1.54;100.00
46836;BME280;32573;51.290;6.926;2023-03-03T07:12:58;101011.81;;;1.55;100.00
46836;BME280;32573;51.290;6.926;2023-03-03T07:15:33;101009.25;;;1.55;100.00
46836;BME280;32573;51.290;6.926;2023-03-03T07:18:07;101004.19;;;1.57;100.00
46836;BME280;32573;51.290;6.926;2023-03-03T07:20:44;101006.00;;;1.58;100.00
46836;BME280;32573;51.290;6.926;2023-03-03T07:23:19;100998.25;;;1.58;100.00
46836;BME280;32573;51.290;6.926;2023-03-03T07:25:49;101008.56;;;1.58;100.00
46836;BME280;32573;51.290;6.926;2023-03-03T07:28:22;101017.06;;;1.57;100.00
46836;BME280;32573;51.290;6.926;2023-03-03T07:30:51;101010.22;;;1.57;100.00
46836;BME280;32573;51.290;6.926;2023-03-03T07:33:25;101015.28;;;1.56;100.00
46836;BME280;32573;51.290;6.926;2023-03-03T07:35:55;101025.59;;;1.56;100.00
46836;BME280;32573;51.290;6.926;2023-03-03T07:38:29;101028.94;;;1.55;100.00
46836;BME280;32573;51.290;6.926;2023-03-03T07:41:00;101029.09;;;1.56;100.00
46836;BME280;32573;51.290;6.926;2023-03-03T07:43:34;101025.59;;;1.56;100.00
46836;BME280;32573;51.290;6.926;2023-03-03T07:46:22;101032.56;;;1.57;100.00
46836;BME280;32573;51.290;6.926;2023-03-03T07:48:55;101039.53;;;1.58;100.00
46836;BME280;32573;51.290;6.926;2023-03-03T07:51:26;101035.38;;;1.60;100.00
46836;BME280;32573;51.290;6.926;2023-03-03T07:54:16;101043.38;;;1.63;100.00
46836;BME280;32573;51.290;6.926;2023-03-03T07:56:48;101045.38;;;1.67;100.00
46836;BME280;32573;51.290;6.926;2023-03-03T07:59:20;101043.81;;;1.69;100.00
46836;BME280;32573;51.290;6.926;2023-03-03T08:01:51;101050.91;;;1.71;100.00
46836;BME280;32573;51.290;6.926;2023-03-03T08:04:27;101048.56;;;1.75;100.00
46836;BME280;32573;51.290;6.926;2023-03-03T08:06:58;101053.06;;;1.77;100.00
46836;BME280;32573;51.290;6.926;2023-03-03T08:09:45;101055.75;;;1.79;100.00
46836;BME280;32573;51.290;6.926;2023-03-03T08:12:23;101057.16;;;1.85;100.00
46836;BME280;32573;51.290;6.926;2023-03-03T08:14:57;101062.66;;;1.90;100.00
46836;BME280;32573;51.290;6.926;2023-03-03T08:17:35;101073.44;;;1.96;100.00
46836;BME280;32573;51.290;6.926;2023-03-03T08:20:42;101076.38;;;2.01;100.00
46836;BME280;32573;51.290;6.926;2023-03-03T08:23:12;101073.28;;;2.05;100.00
46836;BME280;32573;51.290;6.926;2023-03-03T08:25:42;101072.69;;;2.09;100.00
46836;BME280;32573;51.290;6.926;2023-03-03T08:28:11;101076.31;;;2.11;100.00
46836;BME280;32573;51.290;6.926;2023-03-03T08:30:41;101076.53;;;2.14;100.00
46836;BME280;32573;51.290;6.926;2023-03-03T08:33:10;101078.34;;;2.15;100.00
46836;BME280;32573;51.290;6.926;2023-03-03T08:35:40;101078.56;;;2.18;100.00
46836;BME280;32573;51.290;6.926;2023-03-03T08:38:12;101082.19;;;2.20;100.00
46836;BME280;32573;51.290;6.926;2023-03-03T08:40:40;101089.13;;;2.21;100.00
46836;BME280;32573;51.290;6.926;2023-03-03T08:43:10;101084.84;;;2.22;100.00
46836;BME280;32573;51.290;6.926;2023-03-03T08:45:40;101087.34;;;2.20;100.00
46836;BME280;32573;51.290;6.926;2023-03-03T08:48:08;101093.94;;;2.16;100.00
46836;BME280;32573;51.290;6.926;2023-03-03T08:50:38;101098.88;;;2.13;100.00
46836;BME280;32573;51.290;6.926;2023-03-03T08:53:08;101090.09;;;2.11;100.00
46836;BME280;32573;51.290;6.926;2023-03-03T08:55:37;101101.31;;;2.12;100.00
46836;BME280;32573;51.290;6.926;2023-03-03T08:58:05;101096.06;;;2.10;100.00
46836;BME280;32573;51.290;6.926;2023-03-03T09:00:34;101102.13;;;2.11;100.00
46836;BME280;32573;51.290;6.926;2023-03-03T09:03:02;101102.13;;;2.11;100.00
46836;BME280;32573;51.290;6.926;2023-03-03T09:05:34;101107.28;;;2.11;100.00
46836;BME280;32573;51.290;6.926;2023-03-03T09:08:05;101105.59;;;2.11;100.00
46836;BME280;32573;51.290;6.926;2023-03-03T09:10:35;101098.75;;;2.12;100.00
46836;BME280;32573;51.290;6.926;2023-03-03T09:13:07;101104.03;;;2.13;100.00
46836;BME280;32573;51.290;6.926;2023-03-03T09:15:38;101109.34;;;2.15;100.00
46836;BME280;32573;51.290;6.926;2023-03-03T09:18:14;101115.50;;;2.17;100.00
46836;BME280;32573;51.290;6.926;2023-03-03T09:20:46;101116.50;;;2.19;100.00
46836;BME280;32573;51.290;6.926;2023-03-03T09:23:36;101120.13;;;2.21;100.00
46836;BME280;32573;51.290;6.926;2023-03-03T09:26:24;101128.09;;;2.24;100.00
46836;BME280;32573;51.290;6.926;2023-03-03T09:28:58;101120.34;;;2.24;100.00
46836;BME280;32573;51.290;6.926;2023-03-03T09:31:35;101124.75;;;2.25;100.00
46836;BME280;32573;51.290;6.926;2023-03-03T09:34:17;101117.09;;;2.27;100.00
46836;BME280;32573;51.290;6.926;2023-03-03T09:36:46;101130.00;;;2.27;100.00
46836;BME280;32573;51.290;6.926;2023-03-03T09:39:17;101133.53;;;2.27;100.00
46836;BME280;32573;51.290;6.926;2023-03-03T09:42:04;101139.66;;;2.29;100.00
46836;BME280;32573;51.290;6.926;2023-03-03T09:44:55;101132.19;;;2.32;100.00
46836;BME280;32573;51.290;6.926;2023-03-03T09:47:37;101126.22;;;2.33;100.00
46836;BME280;32573;51.290;6.926;2023-03-03T09:50:15;101129.03;;;2.36;100.00
46836;BME280;32573;51.290;6.926;2023-03-03T09:52:52;101132.63;;;2.38;100.00
46836;BME280;32573;51.290;6.926;2023-03-03T09:55:35;101133.00;;;2.43;100.00
46836;BME280;32573;51.290;6.926;2023-03-03T09:58:28;101134.09;;;2.47;100.00
46836;BME280;32573;51.290;6.926;2023-03-03T10:01:09;101142.13;;;2.50;100.00
46836;BME280;32573;51.290;6.926;2023-03-03T10:04:06;101146.72;;;2.54;100.00
46836;BME280;32573;51.290;6.926;2023-03-03T10:06:38;101140.88;;;2.56;100.00
46836;BME280;32573;51.290;6.926;2023-03-03T10:09:30;101131.56;;;2.58;100.00
46836;BME280;32573;51.290;6.926;2023-03-03T10:12:04;101143.03;;;2.62;100.00
46836;BME280;32573;51.290;6.926;2023-03-03T10:14:52;101139.88;;;2.66;100.00
46836;BME280;32573;51.290;6.926;2023-03-03T10:17:36;101139.34;;;2.70;100.00
46836;BME280;32573;51.290;6.926;2023-03-03T10:20:43;101141.34;;;2.74;100.00
46836;BME280;32573;51.290;6.926;2023-03-03T10:23:26;101142.38;;;2.76;100.00
46836;BME280;32573;51.290;6.926;2023-03-03T10:26:08;101133.94;;;2.79;100.00
46836;BME280;32573;51.290;6.926;2023-03-03T10:29:05;101145.44;;;2.83;100.00
46836;BME280;32573;51.290;6.926;2023-03-03T10:31:47;101138.03;;;2.87;100.00
46836;BME280;32573;51.290;6.926;2023-03-03T10:34:28;101136.56;;;2.91;100.00
46836;BME280;32573;51.290;6.926;2023-03-03T10:37:05;101137.78;;;2.96;100.00
46836;BME280;32573;51.290;6.926;2023-03-03T10:39:53;101139.03;;;3.01;100.00
46836;BME280;32573;51.290;6.926;2023-03-03T10:42:35;101145.34;;;3.05;100.00
46836;BME280;32573;51.290;6.926;2023-03-03T10:48:22;101148.50;;;3.12;100.00
46836;BME280;32573;51.290;6.926;2023-03-03T10:51:01;101153.75;;;3.14;100.00
46836;BME280;32573;51.290;6.926;2023-03-03T10:53:41;101150.50;;;3.16;100.00
46836;BME280;32573;51.290;6.926;2023-03-03T10:56:21;101146.34;;;3.18;100.00
46836;BME280;32573;51.290;6.926;2023-03-03T10:59:03;101154.44;;;3.23;100.00
46836;BME280;32573;51.290;6.926;2023-03-03T11:01:44;101143.41;;;3.26;100.00
46836;BME280;32573;51.290;6.926;2023-03-03T11:04:27;101147.78;;;3.27;100.00
46836;BME280;32573;51.290;6.926;2023-03-03T11:07:02;101153.09;;;3.28;100.00
46836;BME280;32573;51.290;6.926;2023-03-03T11:09:47;101152.19;;;3.28;100.00
46836;BME280;32573;51.290;6.926;2023-03-03T11:12:30;101146.13;;;3.27;100.00
46836;BME280;32573;51.290;6.926;2023-03-03T11:15:17;101154.66;;;3.26;100.00
46836;BME280;32573;51.290;6.926;2023-03-03T11:18:01;101151.19;;;3.26;100.00
46836;BME280;32573;51.290;6.926;2023-03-03T11:20:40;101147.91;;;3.28;100.00
46836;BME280;32573;51.290;6.926;2023-03-03T11:23:26;101159.38;;;3.32;100.00
46836;BME280;32573;51.290;6.926;2023-03-03T11:26:06;101151.06;;;3.36;100.00
46836;BME280;32573;51.290;6.926;2023-03-03T11:28:47;101141.94;;;3.41;100.00
46836;BME280;32573;51.290;6.926;2023-03-03T11:31:27;101141.47;;;3.46;100.00
46836;BME280;32573;51.290;6.926;2023-03-03T11:34:02;101138.22;;;3.49;100.00
46836;BME280;32573;51.290;6.926;2023-03-03T11:36:39;101138.44;;;3.52;100.00
46836;BME280;32573;51.290;6.926;2023-03-03T11:39:11;101131.00;;;3.57;100.00
46836;BME280;32573;51.290;6.926;2023-03-03T11:41:48;101126.75;;;3.57;100.00
46836;BME280;32573;51.290;6.926;2023-03-03T11:44:22;101127.50;;;3.56;100.00
46836;BME280;32573;51.290;6.926;2023-03-03T11:46:55;101125.81;;;3.57;100.00
46836;BME280;32573;51.290;6.926;2023-03-03T11:49:28;101133.69;;;3.58;100.00
46836;BME280;32573;51.290;6.926;2023-03-03T11:52:13;101124.16;;;3.57;100.00
46836;BME280;32573;51.290;6.926;2023-03-03T11:54:50;101127.63;;;3.58;100.00
46836;BME280;32573;51.290;6.926;2023-03-03T11:57:22;101124.38;;;3.60;100.00
46836;BME280;32573;51.290;6.926;2023-03-03T12:00:04;101125.59;;;3.65;100.00
46836;BME280;32573;51.290;6.926;2023-03-03T12:02:54;101121.31;;;3.66;100.00
46836;BME280;32573;51.290;6.926;2023-03-03T12:05:44;101118.84;;;3.67;100.00
46836;BME280;32573;51.290;6.926;2023-03-03T12:08:26;101117.00;;;3.66;100.00
46836;BME280;32573;51.290;6.926;2023-03-03T12:11:00;101118.84;;;3.67;100.00
46836;BME280;32573;51.290;6.926;2023-03-03T12:13:41;101113.88;;;3.71;100.00
46836;BME280;32573;51.290;6.926;2023-03-03T12:16:22;101112.50;;;3.76;100.00
46836;BME280;32573;51.290;6.926;2023-03-03T12:19:01;101111.81;;;3.78;100.00
46836;BME280;32573;51.290;6.926;2023-03-03T12:21:45;101119.91;;;3.83;100.00
46836;BME280;32573;51.290;6.926;2023-03-03T12:24:31;101104.38;;;3.83;100.00
46836;BME280;32573;51.290;6.926;2023-03-03T12:27:10;101105.94;;;3.81;100.00
46836;BME280;32573;51.290;6.926;2023-03-03T12:29:44;101103.25;;;3.79;100.00
46836;BME280;32573;51.290;6.926;2023-03-03T12:32:28;101094.59;;;3.79;100.00
46836;BME280;32573;51.290;6.926;2023-03-03T12:35:05;101095.59;;;3.81;100.00
46836;BME280;32573;51.290;6.926;2023-03-03T12:37:46;101104.38;;;3.83;100.00
46836;BME280;32573;51.290;6.926;2023-03-03T12:40:22;101100.22;;;3.85;100.00
46836;BME280;32573;51.290;6.926;2023-03-03T12:43:02;101098.50;;;3.85;100.00
46836;BME280;32573;51.290;6.926;2023-03-03T12:45:45;101099.59;;;3.89;100.00
46836;BME280;32573;51.290;6.926;2023-03-03T12:48:18;101098.03;;;3.91;100.00
46836;BME280;32573;51.290;6.926;2023-03-03T12:50:54;101097.13;;;3.91;100.00
46836;BME280;32573;51.290;6.926;2023-03-03T12:53:34;101097.03;;;3.89;100.00
46836;BME280;32573;51.290;6.926;2023-03-03T12:56:13;101097.81;;;3.88;100.00
46836;BME280;32573;51.290;6.926;2023-03-03T12:58:50;101098.03;;;3.91;100.00
46836;BME280;32573;51.290;6.926;2023-03-03T13:01:31;101096.44;;;3.93;100.00
46836;BME280;32573;51.290;6.926;2023-03-03T13:04:06;101097.47;;;3.95;100.00
46836;BME280;32573;51.290;6.926;2023-03-03T13:06:41;101096.09;;;4.00;100.00
46836;BME280;32573;51.290;6.926;2023-03-03T13:09:29;101096.81;;;4.11;100.00
46836;BME280;32573;51.290;6.926;2023-03-03T13:12:11;101091.47;;;4.21;100.00
46836;BME280;32573;51.290;6.926;2023-03-03T13:14:45;101092.91;;;4.29;100.00
46836;BME280;32573;51.290;6.926;2023-03-03T13:17:21;101096.59;;;4.33;100.00
46836;BME280;32573;51.290;6.926;2023-03-03T13:19:55;101095.78;;;4.34;100.00
46836;BME280;32573;51.290;6.926;2023-03-03T13:22:38;101093.50;;;4.39;100.00
46836;BME280;32573;51.290;6.926;2023-03-03T13:25:23;101092.81;;;4.41;100.00
46836;BME280;32573;51.290;6.926;2023-03-03T13:28:00;101095.53;;;4.43;100.00